• Join FlightAware (Why Join?)
  • Login
  • US Flag 
10:50PM EDT


 

Airport Tracker/Info


-or-


 

Live Flight TrackerFlight Track Log ✈ AWI3725 ✈ 26-Apr-2014 ✈ KCLT - KCMH

Flight Track Log - Related Links

Times and Time Zones

All times are in EDT time to prevent confusion due to time zone crossing. See the AWI3725 flight status page for this flight to view local times or setup timezone preferences in your user account.

Time Position Orientation Groundspeed Altitude Reporting Facility
EDT Latitude Longitude Course Direction KTS MPH feet Rate Location/Type
12:19PM 35.2353 -80.9594 North 175 201 1,600  Level Atlanta Center
12:20PM 35.2800 -80.9933 328° Northwest 204 235 3,500 1,500 Climbing Atlanta Center
12:21PM 35.4789 -81.0502 343° North  Level Estimated
12:21PM 35.3447 -81.0011 354° North 255 293 4,900  Level Atlanta Center
12:22PM 35.5578 -80.9908 31° Northeast  Level FlightAware Approximate
12:22PM 35.4153 -80.9833 12° North 255 293 6,500  Level Atlanta Center
12:23PM 35.6367 -80.9312 32° Northeast  Level FlightAware Approximate
12:23PM 35.4878 -80.9575 16° North 260 299 9,300  Level Atlanta Center
12:24PM 35.7243 -80.9683 North  Level Estimated
12:24PM 35.5789 -80.9311 13° North 280 322 10,500  Level Atlanta Center
12:25PM 35.6697 -80.8997 16° North 315 362 12,100 1,800 Climbing Atlanta Center
12:26PM 35.7678 -80.9011 359° North 342 394 14,100 1,740 Climbing Atlanta Center
12:27PM 35.8583 -80.9358 343° North 337 388 15,600 1,440 Climbing Atlanta Center
12:28PM 35.9531 -80.9683 344° North 337 388 17,000 1,260 Climbing Atlanta Center
12:29PM 36.0478 -81.0031 343° North 347 399 18,100 1,080 Climbing Atlanta Center
12:30PM 36.1467 -81.0381 344° North 352 405 19,200 1,020 Climbing Atlanta Center
12:31PM 36.2436 -81.0756 343° North 357 411 20,200 1,080 Climbing Atlanta Center
12:32PM 36.3489 -81.1131 344° North 373 429 21,400 960 Climbing Atlanta Center
12:33PM 36.4517 -81.1481 345° North 380 437 22,200 960 Climbing Atlanta Center
12:34PM 36.6081 -81.2081 343° North 387 445 23,900 960 Climbing Indianapolis Center
12:35PM 36.7075 -81.2456 343° North 387 445 24,800 720 Climbing Indianapolis Center
12:36PM 36.8064 -81.2814 344° North 384 442 25,500 540 Climbing Indianapolis Center
12:37PM 36.9067 -81.3194 343° North 384 442 26,000 240 Climbing Indianapolis Center
12:38PM 37.0294 -81.3658 343° North 387 445 26,000  Level Indianapolis Center
12:39PM 37.1322 -81.4044 343° North 395 455 26,000  Level Indianapolis Center
12:40PM 37.2414 -81.4450 344° North 401 461 26,000  Level Indianapolis Center
12:42PM 37.3461 -81.4839 344° North 402 463 26,000  Level Indianapolis Center
12:43PM 37.4728 -81.5322 343° North 402 463 26,000  Level Indianapolis Center
12:44PM 37.5794 -81.5733 343° North 402 463 26,000  Level Indianapolis Center
12:45PM 37.6858 -81.6136 343° North 401 461 26,000  Level Indianapolis Center
12:46PM 37.7917 -81.6533 343° North 401 461 26,000  Level Indianapolis Center
12:47PM 37.9050 -81.6967 343° North 401 461 26,000  Level Indianapolis Center
12:48PM 38.0119 -81.7381 343° North 400 460 26,000  Level Indianapolis Center
12:49PM 38.1181 -81.7792 343° North 400 460 26,000 -60 Level Indianapolis Center
12:50PM 38.2247 -81.8206 343° North 400 460 25,900 -300 Descending Indianapolis Center
12:51PM 38.3333 -81.8617 343° North 400 460 25,400 -540 Descending Indianapolis Center
12:52PM 38.4422 -81.9053 343° North 401 461 24,900 -540 Descending Indianapolis Center
12:53PM 38.5547 -81.9486 343° North 412 474 24,400 -480 Descending Indianapolis Center
12:54PM 38.6886 -82.0008 343° North 414 476 24,000 -480 Descending Indianapolis Center
12:55PM 38.7983 -82.0439 343° North 412 474 23,500 -1,140 Descending Indianapolis Center
12:56PM 38.9064 -82.0856 343° North 407 468 21,700 -1,860 Descending Indianapolis Center
12:57PM 39.0108 -82.1267 343° North 394 453 19,700 -1,860 Descending Indianapolis Center
12:58PM 39.1106 -82.1667 343° North 382 440 17,900 -1,800 Descending Indianapolis Center
12:59PM 39.2069 -82.2047 343° North 368 423 16,000 -1,920 Descending Indianapolis Center
01:00PM 39.2931 -82.2386 343° North 336 387 14,000 -2,100 Descending Indianapolis Center
01:01PM 39.3911 -82.2783 343° North 314 361 11,700 -1,500 Descending Indianapolis Center
01:02PM 39.4664 -82.3089 343° North 313 360 11,000 -360 Descending Indianapolis Center
01:03PM 39.5606 -82.3486 342° North 319 367 11,000 -300 Level Indianapolis Center
01:04PM 39.6311 -82.4028 329° Northwest 286 329 10,400 -840 Descending Indianapolis Center
01:05PM 39.6958 -82.4533 329° Northwest 244 281 9,300 -1,380 Descending Indianapolis Center
01:06PM 39.7608 -82.5014 330° Northwest 243 280 7,500 -1,620 Descending Indianapolis Center
01:07PM 39.8114 -82.5444 327° Northwest 242 278 6,100 -1,500 Descending Indianapolis Center
01:08PM 39.8656 -82.5964 324° Northwest 239 275 4,600 -1,440 Descending Indianapolis Center
01:09PM 39.9200 -82.6475 324° Northwest 243 280 3,100 -1,080 Descending Indianapolis Center
01:10PM 39.9681 -82.7133 314° West 221 254 2,500 -360 Descending Indianapolis Center
01:11PM 39.9925 -82.7664 301° West 159 183 2,500  Level Indianapolis Center
01:11PM 39.9967 -82.7711 319° Northwest 196 226 2,500 -840 Level Indianapolis Center
01:12PM 39.9978 -82.8219 272° West 157 181 1,700 -780 Descending Indianapolis Center
01:12PM 39.9994 -82.8267 295° West 170 196 1,700 -360 Level Indianapolis Center
01:14PM 40.0028 -82.8844 274° West 161 185 1,300 -420 Descending Indianapolis Center
01:16PM 39.9969 -82.8922 311° West  Level Estimated